sensor_id;sensor_type;location;lat;lon;timestamp;pressure;altitude;pressure_sealevel;temperature
18782;BMP180;9519;51.890;8.970;2023-07-20T00:03:14;99216.00;;;15.50
18782;BMP180;9519;51.890;8.970;2023-07-20T00:08:21;99214.00;;;15.40
18782;BMP180;9519;51.890;8.970;2023-07-20T00:13:23;99220.00;;;15.40
18782;BMP180;9519;51.890;8.970;2023-07-20T00:18:25;99219.00;;;15.50
18782;BMP180;9519;51.890;8.970;2023-07-20T00:23:29;99222.00;;;15.50
18782;BMP180;9519;51.890;8.970;2023-07-20T00:28:31;99207.00;;;15.50
18782;BMP180;9519;51.890;8.970;2023-07-20T00:33:33;99203.00;;;15.50
18782;BMP180;9519;51.890;8.970;2023-07-20T00:38:36;99200.00;;;15.50
18782;BMP180;9519;51.890;8.970;2023-07-20T00:43:38;99220.00;;;15.50
18782;BMP180;9519;51.890;8.970;2023-07-20T00:48:42;99211.00;;;15.30
18782;BMP180;9519;51.890;8.970;2023-07-20T00:53:46;99210.00;;;15.30
18782;BMP180;9519;51.890;8.970;2023-07-20T00:58:48;99203.00;;;15.30
18782;BMP180;9519;51.890;8.970;2023-07-20T01:03:50;99207.00;;;15.30
18782;BMP180;9519;51.890;8.970;2023-07-20T01:09:04;99204.00;;;15.30
18782;BMP180;9519;51.890;8.970;2023-07-20T01:14:10;99203.00;;;15.30
18782;BMP180;9519;51.890;8.970;2023-07-20T01:19:14;99211.00;;;15.30
18782;BMP180;9519;51.890;8.970;2023-07-20T01:24:51;99197.00;;;15.30
18782;BMP180;9519;51.890;8.970;2023-07-20T01:30:19;99198.00;;;15.30
18782;BMP180;9519;51.890;8.970;2023-07-20T01:35:30;99190.00;;;15.20
18782;BMP180;9519;51.890;8.970;2023-07-20T01:40:32;99193.00;;;15.20
18782;BMP180;9519;51.890;8.970;2023-07-20T01:45:35;99185.00;;;15.20
18782;BMP180;9519;51.890;8.970;2023-07-20T01:50:38;99189.00;;;15.20
18782;BMP180;9519;51.890;8.970;2023-07-20T01:55:40;99190.00;;;15.20
18782;BMP180;9519;51.890;8.970;2023-07-20T02:00:43;99184.00;;;15.10
18782;BMP180;9519;51.890;8.970;2023-07-20T02:05:46;99190.00;;;15.00
18782;BMP180;9519;51.890;8.970;2023-07-20T02:10:49;99179.00;;;15.00
18782;BMP180;9519;51.890;8.970;2023-07-20T02:15:51;99180.00;;;14.90
18782;BMP180;9519;51.890;8.970;2023-07-20T02:20:54;99171.00;;;14.90
18782;BMP180;9519;51.890;8.970;2023-07-20T02:25:56;99176.00;;;14.80
18782;BMP180;9519;51.890;8.970;2023-07-20T02:30:59;99174.00;;;14.80
18782;BMP180;9519;51.890;8.970;2023-07-20T02:36:03;99178.00;;;14.80
18782;BMP180;9519;51.890;8.970;2023-07-20T02:41:05;99171.00;;;14.80
18782;BMP180;9519;51.890;8.970;2023-07-20T02:46:07;99185.00;;;14.80
18782;BMP180;9519;51.890;8.970;2023-07-20T02:51:11;99177.00;;;14.80
18782;BMP180;9519;51.890;8.970;2023-07-20T02:56:13;99178.00;;;14.90
18782;BMP180;9519;51.890;8.970;2023-07-20T03:01:15;99181.00;;;14.90
18782;BMP180;9519;51.890;8.970;2023-07-20T03:06:18;99174.00;;;14.90
18782;BMP180;9519;51.890;8.970;2023-07-20T03:11:21;99173.00;;;15.00
18782;BMP180;9519;51.890;8.970;2023-07-20T03:16:24;99165.00;;;15.00
18782;BMP180;9519;51.890;8.970;2023-07-20T03:21:29;99175.00;;;15.00
18782;BMP180;9519;51.890;8.970;2023-07-20T03:26:31;99162.00;;;15.00
18782;BMP180;9519;51.890;8.970;2023-07-20T03:31:33;99160.00;;;15.00
18782;BMP180;9519;51.890;8.970;2023-07-20T03:36:36;99159.00;;;15.00
18782;BMP180;9519;51.890;8.970;2023-07-20T03:41:38;99158.00;;;15.00
18782;BMP180;9519;51.890;8.970;2023-07-20T03:46:40;99155.00;;;15.00
18782;BMP180;9519;51.890;8.970;2023-07-20T03:51:44;99165.00;;;15.00
18782;BMP180;9519;51.890;8.970;2023-07-20T03:56:46;99155.00;;;14.90
18782;BMP180;9519;51.890;8.970;2023-07-20T04:01:48;99160.00;;;14.90
18782;BMP180;9519;51.890;8.970;2023-07-20T04:06:51;99166.00;;;14.80
18782;BMP180;9519;51.890;8.970;2023-07-20T04:11:54;99165.00;;;14.80
18782;BMP180;9519;51.890;8.970;2023-07-20T04:16:56;99167.00;;;14.80
18782;BMP180;9519;51.890;8.970;2023-07-20T04:22:02;99155.00;;;14.80
18782;BMP180;9519;51.890;8.970;2023-07-20T04:27:05;99169.00;;;14.80
18782;BMP180;9519;51.890;8.970;2023-07-20T04:32:07;99170.00;;;14.80
18782;BMP180;9519;51.890;8.970;2023-07-20T04:37:11;99179.00;;;14.80
18782;BMP180;9519;51.890;8.970;2023-07-20T04:42:13;99203.00;;;14.50
18782;BMP180;9519;51.890;8.970;2023-07-20T04:47:16;99206.00;;;14.00
18782;BMP180;9519;51.890;8.970;2023-07-20T04:52:19;99217.00;;;13.70
18782;BMP180;9519;51.890;8.970;2023-07-20T04:57:24;99227.00;;;13.50
18782;BMP180;9519;51.890;8.970;2023-07-20T05:02:26;99227.00;;;13.50
18782;BMP180;9519;51.890;8.970;2023-07-20T05:07:29;99237.00;;;13.50
18782;BMP180;9519;51.890;8.970;2023-07-20T05:12:31;99228.00;;;13.40
18782;BMP180;9519;51.890;8.970;2023-07-20T05:17:33;99237.00;;;13.40
18782;BMP180;9519;51.890;8.970;2023-07-20T05:22:37;99245.00;;;13.40
18782;BMP180;9519;51.890;8.970;2023-07-20T05:27:40;99235.00;;;13.40
18782;BMP180;9519;51.890;8.970;2023-07-20T05:32:43;99235.00;;;13.30
18782;BMP180;9519;51.890;8.970;2023-07-20T05:37:48;99241.00;;;13.30
18782;BMP180;9519;51.890;8.970;2023-07-20T05:42:50;99240.00;;;13.40
18782;BMP180;9519;51.890;8.970;2023-07-20T05:47:54;99238.00;;;13.40
18782;BMP180;9519;51.890;8.970;2023-07-20T05:52:58;99248.00;;;13.40
18782;BMP180;9519;51.890;8.970;2023-07-20T05:58:00;99247.00;;;13.50
18782;BMP180;9519;51.890;8.970;2023-07-20T06:03:02;99255.00;;;13.50
18782;BMP180;9519;51.890;8.970;2023-07-20T06:08:06;99257.00;;;13.50
18782;BMP180;9519;51.890;8.970;2023-07-20T06:13:08;99251.00;;;13.50
18782;BMP180;9519;51.890;8.970;2023-07-20T06:18:10;99256.00;;;13.60
18782;BMP180;9519;51.890;8.970;2023-07-20T06:23:14;99261.00;;;13.70
18782;BMP180;9519;51.890;8.970;2023-07-20T06:28:16;99211.00;;;13.70
18782;BMP180;9519;51.890;8.970;2023-07-20T06:33:18;99245.00;;;13.80
18782;BMP180;9519;51.890;8.970;2023-07-20T06:38:23;99266.00;;;13.80
18782;BMP180;9519;51.890;8.970;2023-07-20T06:43:25;99263.00;;;13.90
18782;BMP180;9519;51.890;8.970;2023-07-20T06:48:27;99270.00;;;14.00
18782;BMP180;9519;51.890;8.970;2023-07-20T06:53:32;99256.00;;;13.90
18782;BMP180;9519;51.890;8.970;2023-07-20T06:58:34;99263.00;;;13.90
18782;BMP180;9519;51.890;8.970;2023-07-20T07:03:36;99274.00;;;14.00
18782;BMP180;9519;51.890;8.970;2023-07-20T07:08:40;99271.00;;;14.00
18782;BMP180;9519;51.890;8.970;2023-07-20T07:13:43;99288.00;;;14.20
18782;BMP180;9519;51.890;8.970;2023-07-20T07:18:50;99289.00;;;14.30
18782;BMP180;9519;51.890;8.970;2023-07-20T07:23:54;99293.00;;;14.20
18782;BMP180;9519;51.890;8.970;2023-07-20T07:29:00;99294.00;;;14.40
18782;BMP180;9519;51.890;8.970;2023-07-20T07:34:02;99305.00;;;14.60
18782;BMP180;9519;51.890;8.970;2023-07-20T07:39:06;99296.00;;;14.60
18782;BMP180;9519;51.890;8.970;2023-07-20T07:44:13;99305.00;;;14.60
18782;BMP180;9519;51.890;8.970;2023-07-20T07:49:15;99307.00;;;14.70
18782;BMP180;9519;51.890;8.970;2023-07-20T07:54:18;99313.00;;;14.80
18782;BMP180;9519;51.890;8.970;2023-07-20T07:59:21;99312.00;;;14.90
18782;BMP180;9519;51.890;8.970;2023-07-20T08:04:23;99323.00;;;14.90
18782;BMP180;9519;51.890;8.970;2023-07-20T08:09:26;99327.00;;;14.90
18782;BMP180;9519;51.890;8.970;2023-07-20T08:14:29;99326.00;;;15.10
18782;BMP180;9519;51.890;8.970;2023-07-20T08:19:31;99330.00;;;15.10
18782;BMP180;9519;51.890;8.970;2023-07-20T08:24:34;99329.00;;;15.20
18782;BMP180;9519;51.890;8.970;2023-07-20T08:29:37;99342.00;;;15.40
18782;BMP180;9519;51.890;8.970;2023-07-20T08:34:41;99342.00;;;15.40
18782;BMP180;9519;51.890;8.970;2023-07-20T08:39:45;99351.00;;;15.50
18782;BMP180;9519;51.890;8.970;2023-07-20T08:44:49;99347.00;;;15.60
18782;BMP180;9519;51.890;8.970;2023-07-20T08:49:54;99344.00;;;15.60
18782;BMP180;9519;51.890;8.970;2023-07-20T08:54:58;99334.00;;;15.80
18782;BMP180;9519;51.890;8.970;2023-07-20T09:00:06;99349.00;;;16.00
18782;BMP180;9519;51.890;8.970;2023-07-20T09:05:11;99329.00;;;16.10
18782;BMP180;9519;51.890;8.970;2023-07-20T09:10:16;99334.00;;;16.20
18782;BMP180;9519;51.890;8.970;2023-07-20T09:15:19;99326.00;;;16.40
18782;BMP180;9519;51.890;8.970;2023-07-20T09:20:22;99342.00;;;16.60
18782;BMP180;9519;51.890;8.970;2023-07-20T09:25:27;99337.00;;;16.70
18782;BMP180;9519;51.890;8.970;2023-07-20T09:30:30;99334.00;;;16.70
18782;BMP180;9519;51.890;8.970;2023-07-20T09:35:32;99335.00;;;16.80
18782;BMP180;9519;51.890;8.970;2023-07-20T09:40:39;99340.00;;;16.80
18782;BMP180;9519;51.890;8.970;2023-07-20T09:45:43;99344.00;;;16.90
18782;BMP180;9519;51.890;8.970;2023-07-20T09:50:50;99323.00;;;16.90
18782;BMP180;9519;51.890;8.970;2023-07-20T09:55:54;99330.00;;;17.10
18782;BMP180;9519;51.890;8.970;2023-07-20T10:00:58;99337.00;;;17.20
18782;BMP180;9519;51.890;8.970;2023-07-20T10:06:08;99343.00;;;17.30
18782;BMP180;9519;51.890;8.970;2023-07-20T10:11:17;99343.00;;;17.30
18782;BMP180;9519;51.890;8.970;2023-07-20T10:16:26;99340.00;;;17.40
18782;BMP180;9519;51.890;8.970;2023-07-20T10:21:30;99339.00;;;17.40
18782;BMP180;9519;51.890;8.970;2023-07-20T10:26:33;99337.00;;;17.60
18782;BMP180;9519;51.890;8.970;2023-07-20T10:31:37;99326.00;;;17.70
18782;BMP180;9519;51.890;8.970;2023-07-20T10:36:45;99331.00;;;17.90
18782;BMP180;9519;51.890;8.970;2023-07-20T10:41:59;99314.00;;;18.00
18782;BMP180;9519;51.890;8.970;2023-07-20T10:47:03;99308.00;;;18.20
18782;BMP180;9519;51.890;8.970;2023-07-20T10:52:10;99305.00;;;18.50
18782;BMP180;9519;51.890;8.970;2023-07-20T10:57:28;99293.00;;;18.70
18782;BMP180;9519;51.890;8.970;2023-07-20T11:02:42;99307.00;;;18.70
18782;BMP180;9519;51.890;8.970;2023-07-20T11:07:45;99292.00;;;18.70
18782;BMP180;9519;51.890;8.970;2023-07-20T11:13:23;99308.00;;;18.60
18782;BMP180;9519;51.890;8.970;2023-07-20T11:18:26;99299.00;;;18.70
18782;BMP180;9519;51.890;8.970;2023-07-20T11:23:31;99297.00;;;18.80
18782;BMP180;9519;51.890;8.970;2023-07-20T11:28:35;99297.00;;;18.80
18782;BMP180;9519;51.890;8.970;2023-07-20T11:33:38;99304.00;;;18.70
18782;BMP180;9519;51.890;8.970;2023-07-20T11:38:42;99294.00;;;18.60
18782;BMP180;9519;51.890;8.970;2023-07-20T11:43:47;99305.00;;;18.60
18782;BMP180;9519;51.890;8.970;2023-07-20T11:48:56;99289.00;;;18.70
18782;BMP180;9519;51.890;8.970;2023-07-20T11:53:59;99286.00;;;18.90
18782;BMP180;9519;51.890;8.970;2023-07-20T11:59:06;99285.00;;;19.00
18782;BMP180;9519;51.890;8.970;2023-07-20T12:04:12;99298.00;;;19.10
18782;BMP180;9519;51.890;8.970;2023-07-20T12:09:19;99276.00;;;19.10
18782;BMP180;9519;51.890;8.970;2023-07-20T12:14:25;99268.00;;;19.20
18782;BMP180;9519;51.890;8.970;2023-07-20T12:19:28;99264.00;;;19.40
18782;BMP180;9519;51.890;8.970;2023-07-20T12:24:33;99253.00;;;19.70
18782;BMP180;9519;51.890;8.970;2023-07-20T12:29:36;99243.00;;;19.70
18782;BMP180;9519;51.890;8.970;2023-07-20T12:34:38;99259.00;;;19.60
18782;BMP180;9519;51.890;8.970;2023-07-20T12:39:41;99244.00;;;19.60
18782;BMP180;9519;51.890;8.970;2023-07-20T12:44:49;99257.00;;;19.60
18782;BMP180;9519;51.890;8.970;2023-07-20T12:49:51;99248.00;;;19.50
18782;BMP180;9519;51.890;8.970;2023-07-20T12:54:53;99238.00;;;19.50
18782;BMP180;9519;51.890;8.970;2023-07-20T12:59:57;99250.00;;;19.70
18782;BMP180;9519;51.890;8.970;2023-07-20T13:05:05;99205.00;;;20.00
18782;BMP180;9519;51.890;8.970;2023-07-20T13:10:09;99221.00;;;20.00
18782;BMP180;9519;51.890;8.970;2023-07-20T13:15:13;99219.00;;;20.00
18782;BMP180;9519;51.890;8.970;2023-07-20T13:20:15;99226.00;;;19.90
18782;BMP180;9519;51.890;8.970;2023-07-20T13:25:19;99224.00;;;19.90
18782;BMP180;9519;51.890;8.970;2023-07-20T13:30:22;99222.00;;;19.80
18782;BMP180;9519;51.890;8.970;2023-07-20T13:35:24;99225.00;;;19.80
18782;BMP180;9519;51.890;8.970;2023-07-20T13:40:27;99235.00;;;19.70
18782;BMP180;9519;51.890;8.970;2023-07-20T13:45:30;99239.00;;;19.60
18782;BMP180;9519;51.890;8.970;2023-07-20T13:50:32;99233.00;;;19.90
18782;BMP180;9519;51.890;8.970;2023-07-20T13:55:34;99204.00;;;20.20
18782;BMP180;9519;51.890;8.970;2023-07-20T14:00:39;99210.00;;;20.60
18782;BMP180;9519;51.890;8.970;2023-07-20T14:05:41;99198.00;;;21.00
18782;BMP180;9519;51.890;8.970;2023-07-20T14:10:44;99191.00;;;21.20
18782;BMP180;9519;51.890;8.970;2023-07-20T14:15:47;99189.00;;;21.20
18782;BMP180;9519;51.890;8.970;2023-07-20T14:20:51;99191.00;;;21.10
18782;BMP180;9519;51.890;8.970;2023-07-20T14:25:53;99196.00;;;21.20
18782;BMP180;9519;51.890;8.970;2023-07-20T14:30:56;99175.00;;;21.80
18782;BMP180;9519;51.890;8.970;2023-07-20T14:35:59;99168.00;;;22.20
18782;BMP180;9519;51.890;8.970;2023-07-20T14:41:02;99168.00;;;22.90
18782;BMP180;9519;51.890;8.970;2023-07-20T14:46:05;99157.00;;;23.00
18782;BMP180;9519;51.890;8.970;2023-07-20T14:51:07;99158.00;;;22.40
18782;BMP180;9519;51.890;8.970;2023-07-20T14:56:09;99150.00;;;22.30
18782;BMP180;9519;51.890;8.970;2023-07-20T15:01:13;99146.00;;;22.50
18782;BMP180;9519;51.890;8.970;2023-07-20T15:06:15;99145.00;;;23.00
18782;BMP180;9519;51.890;8.970;2023-07-20T15:11:17;99138.00;;;23.40
18782;BMP180;9519;51.890;8.970;2023-07-20T15:16:21;99136.00;;;23.20
18782;BMP180;9519;51.890;8.970;2023-07-20T15:21:23;99124.00;;;23.10
18782;BMP180;9519;51.890;8.970;2023-07-20T15:26:26;99140.00;;;23.50
18782;BMP180;9519;51.890;8.970;2023-07-20T15:31:30;99134.00;;;23.50
18782;BMP180;9519;51.890;8.970;2023-07-20T15:36:32;99138.00;;;23.50
18782;BMP180;9519;51.890;8.970;2023-07-20T15:41:34;99130.00;;;23.80
18782;BMP180;9519;51.890;8.970;2023-07-20T15:46:48;99140.00;;;23.80
18782;BMP180;9519;51.890;8.970;2023-07-20T15:51:51;99148.00;;;23.70
18782;BMP180;9519;51.890;8.970;2023-07-20T15:56:53;99137.00;;;23.60
18782;BMP180;9519;51.890;8.970;2023-07-20T16:01:56;99147.00;;;23.60
18782;BMP180;9519;51.890;8.970;2023-07-20T16:06:59;99140.00;;;23.20
18782;BMP180;9519;51.890;8.970;2023-07-20T16:12:01;99153.00;;;23.10
18782;BMP180;9519;51.890;8.970;2023-07-20T16:17:05;99145.00;;;23.50
18782;BMP180;9519;51.890;8.970;2023-07-20T16:22:07;99143.00;;;23.80
18782;BMP180;9519;51.890;8.970;2023-07-20T16:27:12;99142.00;;;24.20
18782;BMP180;9519;51.890;8.970;2023-07-20T16:32:16;99131.00;;;24.50
18782;BMP180;9519;51.890;8.970;2023-07-20T16:37:18;99122.00;;;24.90
18782;BMP180;9519;51.890;8.970;2023-07-20T16:42:20;99103.00;;;25.50
18782;BMP180;9519;51.890;8.970;2023-07-20T16:47:24;99097.00;;;25.90
18782;BMP180;9519;51.890;8.970;2023-07-20T16:52:27;99106.00;;;26.40
18782;BMP180;9519;51.890;8.970;2023-07-20T16:57:29;99096.00;;;26.30
18782;BMP180;9519;51.890;8.970;2023-07-20T17:02:33;99085.00;;;26.30
18782;BMP180;9519;51.890;8.970;2023-07-20T17:07:35;99092.00;;;26.50
18782;BMP180;9519;51.890;8.970;2023-07-20T17:12:42;99089.00;;;26.70
18782;BMP180;9519;51.890;8.970;2023-07-20T17:17:46;99087.00;;;26.70
18782;BMP180;9519;51.890;8.970;2023-07-20T17:22:51;99087.00;;;26.50
18782;BMP180;9519;51.890;8.970;2023-07-20T17:27:53;99088.00;;;26.20
18782;BMP180;9519;51.890;8.970;2023-07-20T17:32:59;99083.00;;;26.20
18782;BMP180;9519;51.890;8.970;2023-07-20T17:38:01;99078.00;;;25.60
18782;BMP180;9519;51.890;8.970;2023-07-20T17:43:03;99090.00;;;24.90
18782;BMP180;9519;51.890;8.970;2023-07-20T17:48:09;99095.00;;;24.30
18782;BMP180;9519;51.890;8.970;2023-07-20T17:53:11;99093.00;;;23.80
18782;BMP180;9519;51.890;8.970;2023-07-20T17:58:13;99094.00;;;23.30
18782;BMP180;9519;51.890;8.970;2023-07-20T18:03:17;99089.00;;;23.00
18782;BMP180;9519;51.890;8.970;2023-07-20T18:08:19;99072.00;;;22.70
18782;BMP180;9519;51.890;8.970;2023-07-20T18:13:22;99083.00;;;22.50
18782;BMP180;9519;51.890;8.970;2023-07-20T18:18:25;99098.00;;;22.30
18782;BMP180;9519;51.890;8.970;2023-07-20T18:23:28;99097.00;;;22.20
18782;BMP180;9519;51.890;8.970;2023-07-20T18:28:30;99100.00;;;22.00
18782;BMP180;9519;51.890;8.970;2023-07-20T18:33:34;99102.00;;;21.70
18782;BMP180;9519;51.890;8.970;2023-07-20T18:38:36;99103.00;;;21.60
18782;BMP180;9519;51.890;8.970;2023-07-20T18:43:38;99109.00;;;21.40
18782;BMP180;9519;51.890;8.970;2023-07-20T18:48:42;99107.00;;;21.10
18782;BMP180;9519;51.890;8.970;2023-07-20T18:53:44;99125.00;;;20.80
18782;BMP180;9519;51.890;8.970;2023-07-20T18:58:46;99119.00;;;20.50
18782;BMP180;9519;51.890;8.970;2023-07-20T19:03:50;99126.00;;;20.30
18782;BMP180;9519;51.890;8.970;2023-07-20T19:08:52;99137.00;;;20.20
18782;BMP180;9519;51.890;8.970;2023-07-20T19:13:55;99140.00;;;20.00
18782;BMP180;9519;51.890;8.970;2023-07-20T19:18:58;99135.00;;;19.70
18782;BMP180;9519;51.890;8.970;2023-07-20T19:24:01;99140.00;;;19.50
18782;BMP180;9519;51.890;8.970;2023-07-20T19:29:04;99139.00;;;19.30
18782;BMP180;9519;51.890;8.970;2023-07-20T19:34:08;99152.00;;;19.00
18782;BMP180;9519;51.890;8.970;2023-07-20T19:39:14;99170.00;;;18.80
18782;BMP180;9519;51.890;8.970;2023-07-20T19:44:20;99182.00;;;18.50
18782;BMP180;9519;51.890;8.970;2023-07-20T19:49:24;99189.00;;;18.40
18782;BMP180;9519;51.890;8.970;2023-07-20T19:54:26;99194.00;;;18.20
18782;BMP180;9519;51.890;8.970;2023-07-20T19:59:28;99199.00;;;18.00
18782;BMP180;9519;51.890;8.970;2023-07-20T20:04:32;99197.00;;;17.90
18782;BMP180;9519;51.890;8.970;2023-07-20T20:09:34;99201.00;;;17.70
18782;BMP180;9519;51.890;8.970;2023-07-20T20:14:36;99204.00;;;17.60
18782;BMP180;9519;51.890;8.970;2023-07-20T20:19:40;99193.00;;;17.40
18782;BMP180;9519;51.890;8.970;2023-07-20T20:24:42;99199.00;;;17.30
18782;BMP180;9519;51.890;8.970;2023-07-20T20:29:44;99205.00;;;17.10
18782;BMP180;9519;51.890;8.970;2023-07-20T20:34:48;99199.00;;;17.00
18782;BMP180;9519;51.890;8.970;2023-07-20T20:39:50;99188.00;;;16.90
18782;BMP180;9519;51.890;8.970;2023-07-20T20:44:53;99214.00;;;16.70
18782;BMP180;9519;51.890;8.970;2023-07-20T20:50:01;99215.00;;;16.60
18782;BMP180;9519;51.890;8.970;2023-07-20T20:55:04;99200.00;;;16.60
18782;BMP180;9519;51.890;8.970;2023-07-20T21:00:07;99191.00;;;16.50
18782;BMP180;9519;51.890;8.970;2023-07-20T21:05:11;99201.00;;;16.40
18782;BMP180;9519;51.890;8.970;2023-07-20T21:10:14;99194.00;;;16.30
18782;BMP180;9519;51.890;8.970;2023-07-20T21:15:16;99211.00;;;16.30
18782;BMP180;9519;51.890;8.970;2023-07-20T21:20:20;99214.00;;;16.20
18782;BMP180;9519;51.890;8.970;2023-07-20T21:25:22;99214.00;;;16.20
18782;BMP180;9519;51.890;8.970;2023-07-20T21:30:24;99209.00;;;16.10
18782;BMP180;9519;51.890;8.970;2023-07-20T21:35:29;99211.00;;;16.00
18782;BMP180;9519;51.890;8.970;2023-07-20T21:40:35;99208.00;;;16.00
18782;BMP180;9519;51.890;8.970;2023-07-20T21:45:37;99204.00;;;16.00
18782;BMP180;9519;51.890;8.970;2023-07-20T21:50:47;99194.00;;;15.90
18782;BMP180;9519;51.890;8.970;2023-07-20T21:55:50;99193.00;;;15.90
18782;BMP180;9519;51.890;8.970;2023-07-20T22:00:52;99192.00;;;15.90
18782;BMP180;9519;51.890;8.970;2023-07-20T22:05:58;99183.00;;;15.90
18782;BMP180;9519;51.890;8.970;2023-07-20T22:11:05;99189.00;;;15.90
18782;BMP180;9519;51.890;8.970;2023-07-20T22:16:07;99186.00;;;15.90
18782;BMP180;9519;51.890;8.970;2023-07-20T22:21:11;99173.00;;;15.90
18782;BMP180;9519;51.890;8.970;2023-07-20T22:26:13;99188.00;;;15.80
18782;BMP180;9519;51.890;8.970;2023-07-20T22:31:15;99171.00;;;15.80
18782;BMP180;9519;51.890;8.970;2023-07-20T22:36:19;99170.00;;;15.80
18782;BMP180;9519;51.890;8.970;2023-07-20T22:41:21;99163.00;;;15.80
18782;BMP180;9519;51.890;8.970;2023-07-20T22:46:23;99158.00;;;15.80
18782;BMP180;9519;51.890;8.970;2023-07-20T22:51:26;99165.00;;;15.80
18782;BMP180;9519;51.890;8.970;2023-07-20T22:56:29;99164.00;;;15.80
18782;BMP180;9519;51.890;8.970;2023-07-20T23:01:32;99158.00;;;15.80
18782;BMP180;9519;51.890;8.970;2023-07-20T23:06:35;99164.00;;;15.80
18782;BMP180;9519;51.890;8.970;2023-07-20T23:11:37;99147.00;;;15.70
18782;BMP180;9519;51.890;8.970;2023-07-20T23:16:39;99158.00;;;15.70
18782;BMP180;9519;51.890;8.970;2023-07-20T23:21:43;99152.00;;;15.70
18782;BMP180;9519;51.890;8.970;2023-07-20T23:26:45;99147.00;;;15.70
18782;BMP180;9519;51.890;8.970;2023-07-20T23:31:47;99142.00;;;15.70
18782;BMP180;9519;51.890;8.970;2023-07-20T23:36:51;99145.00;;;15.70
18782;BMP180;9519;51.890;8.970;2023-07-20T23:41:53;99139.00;;;15.70
18782;BMP180;9519;51.890;8.970;2023-07-20T23:46:57;99134.00;;;15.70
18782;BMP180;9519;51.890;8.970;2023-07-20T23:52:00;99124.00;;;15.70
18782;BMP180;9519;51.890;8.970;2023-07-20T23:57:02;99121.00;;;15.70
